createdAt,value
2022-09-24T00:01:39.128Z,7.50
2022-09-24T00:04:09.973Z,7.50
2022-09-24T00:06:43.416Z,7.50
2022-09-24T00:09:15.201Z,7.50
2022-09-24T00:11:46.124Z,7.50
2022-09-24T00:14:14.385Z,7.50
2022-09-24T00:16:42.926Z,7.50
2022-09-24T00:19:11.700Z,7.50
2022-09-24T00:21:40.577Z,7.40
2022-09-24T00:24:11.122Z,7.40
2022-09-24T00:26:50.545Z,7.40
2022-09-24T00:29:24.586Z,7.40
2022-09-24T00:31:53.349Z,7.40
2022-09-24T00:34:21.612Z,7.40
2022-09-24T00:36:49.025Z,7.40
2022-09-24T00:39:17.657Z,7.30
2022-09-24T00:41:48.255Z,7.30
2022-09-24T00:44:48.662Z,7.20
2022-09-24T00:47:30.944Z,7.20
2022-09-24T00:50:08.403Z,7.20
2022-09-24T00:52:42.714Z,7.20
2022-09-24T00:55:11.247Z,7.10
2022-09-24T00:57:40.436Z,7.00
2022-09-24T01:00:09.057Z,7.00
2022-09-24T01:02:39.580Z,7.00
2022-09-24T01:05:07.249Z,7.10
2022-09-24T01:07:35.705Z,7.10
2022-09-24T01:10:04.040Z,7.20
2022-09-24T01:12:48.221Z,7.10
2022-09-24T01:15:33.012Z,7.10
2022-09-24T01:18:21.360Z,7.10
2022-09-24T01:21:13.863Z,7.10
2022-09-24T01:23:59.659Z,7.10
2022-09-24T01:26:45.811Z,7.10
2022-09-24T01:29:28.069Z,7.10
2022-09-24T01:32:06.798Z,7.10
2022-09-24T01:34:53.466Z,7.10
2022-09-24T01:37:24.747Z,7.10
2022-09-24T01:39:54.076Z,7.00
2022-09-24T01:42:23.869Z,7.00
2022-09-24T01:44:52.294Z,7.00
2022-09-24T01:47:34.320Z,7.00
2022-09-24T01:50:04.085Z,7.00
2022-09-24T01:52:39.630Z,7.00
2022-09-24T01:55:10.830Z,7.00
2022-09-24T01:57:52.605Z,7.00
2022-09-24T02:00:21.763Z,7.10
2022-09-24T02:02:55.075Z,7.10
2022-09-24T02:05:48.528Z,7.10
2022-09-24T02:08:23.383Z,7.10
2022-09-24T02:11:02.389Z,7.10
2022-09-24T02:13:40.703Z,7.10
2022-09-24T02:16:12.241Z,7.10
2022-09-24T02:18:42.795Z,7.10
2022-09-24T02:21:15.753Z,7.00
2022-09-24T02:23:51.557Z,7.00
2022-09-24T02:26:19.118Z,7.10
2022-09-24T02:28:46.751Z,7.20
2022-09-24T02:31:27.564Z,7.10
2022-09-24T02:34:14.838Z,7.10
2022-09-24T02:36:42.366Z,7.10
2022-09-24T02:39:09.845Z,7.10
2022-09-24T02:41:37.826Z,7.10
2022-09-24T02:44:05.415Z,7.10
2022-09-24T02:46:32.817Z,7.10
2022-09-24T02:49:00.380Z,7.20
2022-09-24T02:51:27.749Z,7.20
2022-09-24T02:53:55.013Z,7.20
2022-09-24T02:56:23.068Z,7.30
2022-09-24T02:58:50.317Z,7.30
2022-09-24T03:01:17.737Z,7.20
2022-09-24T03:03:45.140Z,7.20
2022-09-24T03:06:15.237Z,7.10
2022-09-24T03:08:44.136Z,7.10
2022-09-24T03:11:17.694Z,7.10
2022-09-24T03:13:46.142Z,7.20
2022-09-24T03:16:13.536Z,7.30
2022-09-24T03:18:40.785Z,7.30
2022-09-24T03:21:11.482Z,7.20
2022-09-24T03:23:39.116Z,7.20
2022-09-24T03:26:06.583Z,7.30
2022-09-24T03:28:34.272Z,7.30
2022-09-24T03:31:01.789Z,7.30
2022-09-24T03:33:30.544Z,7.30
2022-09-24T03:36:00.102Z,7.20
2022-09-24T03:38:27.823Z,7.20
2022-09-24T03:40:55.574Z,7.20
2022-09-24T03:43:23.760Z,7.20
2022-09-24T03:45:51.911Z,7.20
2022-09-24T03:48:20.824Z,7.20
2022-09-24T03:50:48.591Z,7.10
2022-09-24T03:53:16.688Z,7.20
2022-09-24T03:55:53.985Z,7.10
2022-09-24T03:58:21.790Z,7.10
2022-09-24T04:00:49.121Z,7.00
2022-09-24T04:03:16.425Z,7.00
2022-09-24T04:05:43.894Z,6.90
2022-09-24T04:08:11.369Z,6.90
2022-09-24T04:10:38.645Z,6.80
2022-09-24T04:13:06.193Z,6.80
2022-09-24T04:15:34.170Z,6.70
2022-09-24T04:18:02.011Z,6.60
2022-09-24T04:20:31.320Z,6.60
2022-09-24T04:22:59.967Z,6.60
2022-09-24T04:25:30.998Z,6.60
2022-09-24T04:28:04.053Z,6.60
2022-09-24T04:30:35.597Z,6.60
2022-09-24T04:33:03.698Z,6.60
2022-09-24T04:35:36.357Z,6.60
2022-09-24T04:38:05.299Z,6.60
2022-09-24T04:40:33.191Z,6.60
2022-09-24T04:43:00.990Z,6.60
2022-09-24T04:45:28.350Z,6.70
2022-09-24T04:47:58.514Z,6.70
2022-09-24T04:50:29.073Z,6.60
2022-09-24T04:52:57.141Z,6.60
2022-09-24T04:55:25.819Z,6.60
2022-09-24T04:57:55.416Z,6.60
2022-09-24T05:00:25.909Z,6.60
2022-09-24T05:03:01.391Z,6.60
2022-09-24T05:05:29.166Z,6.60
2022-09-24T05:07:59.353Z,6.60
2022-09-24T05:10:28.965Z,6.60
2022-09-24T05:12:56.333Z,6.50
2022-09-24T05:15:23.844Z,6.50
2022-09-24T05:17:51.512Z,6.60
2022-09-24T05:20:18.787Z,6.60
2022-09-24T05:22:48.133Z,6.60
2022-09-24T05:25:16.780Z,6.60
2022-09-24T05:27:54.302Z,6.70
2022-09-24T05:30:23.965Z,6.70
2022-09-24T05:32:54.602Z,6.70
2022-09-24T05:35:23.573Z,6.70
2022-09-24T05:37:53.931Z,6.80
2022-09-24T05:40:41.083Z,6.90
2022-09-24T05:43:09.028Z,6.90
2022-09-24T05:45:36.405Z,6.90
2022-09-24T05:48:04.314Z,6.90
2022-09-24T05:50:33.680Z,6.90
2022-09-24T05:53:02.238Z,6.90
2022-09-24T05:55:32.389Z,6.90
2022-09-24T05:58:08.410Z,7.00
2022-09-24T06:00:36.480Z,6.90
2022-09-24T06:03:06.911Z,7.00
2022-09-24T06:05:37.853Z,7.00
2022-09-24T06:08:06.472Z,7.00
2022-09-24T06:10:33.923Z,7.10
2022-09-24T06:13:02.203Z,7.20
2022-09-24T06:15:35.107Z,7.30
2022-09-24T06:18:03.761Z,7.30
2022-09-24T06:20:31.453Z,7.40
2022-09-24T06:22:59.385Z,7.50
2022-09-24T06:25:28.408Z,7.50
2022-09-24T06:28:03.025Z,7.50
2022-09-24T06:30:39.019Z,7.50
2022-09-24T06:33:10.050Z,7.60
2022-09-24T06:35:38.726Z,7.70
2022-09-24T06:38:07.237Z,7.80
2022-09-24T06:40:37.328Z,7.90
2022-09-24T06:43:06.962Z,7.80
2022-09-24T06:45:35.184Z,7.90
2022-09-24T06:48:04.954Z,8.00
2022-09-24T06:50:34.639Z,8.00
2022-09-24T06:53:05.915Z,8.00
2022-09-24T06:55:34.178Z,8.20
2022-09-24T06:58:07.981Z,8.30
2022-09-24T07:00:36.935Z,8.40
2022-09-24T07:03:04.641Z,8.50
2022-09-24T07:05:32.858Z,8.60
2022-09-24T07:08:03.115Z,8.70
2022-09-24T07:10:31.295Z,8.80
2022-09-24T07:12:58.592Z,8.90
2022-09-24T07:15:25.930Z,9.10
2022-09-24T07:17:57.546Z,9.10
2022-09-24T07:20:29.078Z,9.20
2022-09-24T07:22:56.709Z,9.30
2022-09-24T07:25:24.439Z,9.30
2022-09-24T07:27:51.797Z,9.50
2022-09-24T07:30:19.208Z,9.60
2022-09-24T07:32:46.816Z,9.70
2022-09-24T07:35:14.250Z,9.60
2022-09-24T07:37:41.688Z,9.60
2022-09-24T07:40:09.775Z,9.60
2022-09-24T07:42:47.257Z,9.80
2022-09-24T07:45:16.102Z,10.00
2022-09-24T07:47:43.899Z,10.10
2022-09-24T07:50:12.149Z,10.20
2022-09-24T07:52:39.942Z,10.40
2022-09-24T07:55:08.278Z,10.40
2022-09-24T07:57:36.057Z,10.60
2022-09-24T08:00:04.213Z,10.60
2022-09-24T08:02:31.608Z,10.70
2022-09-24T08:04:59.016Z,10.80
2022-09-24T08:07:26.565Z,10.90
2022-09-24T08:09:53.919Z,10.90
2022-09-24T08:12:21.507Z,10.90
2022-09-24T08:14:48.846Z,10.80
2022-09-24T08:17:17.682Z,10.80
2022-09-24T08:19:47.204Z,10.90
2022-09-24T08:22:15.170Z,11.10
2022-09-24T08:24:42.511Z,11.30
2022-09-24T08:27:15.030Z,11.30
2022-09-24T08:29:44.477Z,11.40
2022-09-24T08:32:12.873Z,11.60
2022-09-24T08:34:40.974Z,11.70
2022-09-24T08:37:09.120Z,12.00
2022-09-24T08:39:36.483Z,12.20
2022-09-24T08:42:12.400Z,12.60
2022-09-24T08:45:02.676Z,12.80
2022-09-24T08:48:09.889Z,13.30
2022-09-24T08:50:42.100Z,13.50
2022-09-24T08:53:41.216Z,13.70
2022-09-24T08:56:10.708Z,13.70
2022-09-24T08:58:45.022Z,13.80
2022-09-24T09:01:12.752Z,14.00
2022-09-24T09:03:40.455Z,14.10
2022-09-24T09:06:37.342Z,14.20
2022-09-24T09:09:13.225Z,14.20
2022-09-24T09:11:43.982Z,14.20
2022-09-24T09:14:44.394Z,14.30
2022-09-24T09:17:42.587Z,14.30
2022-09-24T09:20:24.698Z,14.40
2022-09-24T09:22:55.898Z,14.30
2022-09-24T09:25:27.484Z,14.30
2022-09-24T09:28:15.516Z,14.30
2022-09-24T09:31:07.211Z,14.30
2022-09-24T09:33:39.640Z,14.40
2022-09-24T09:36:35.837Z,14.50
2022-09-24T09:39:13.661Z,14.50
2022-09-24T09:41:50.925Z,14.60
2022-09-24T09:44:26.609Z,14.60
2022-09-24T09:47:41.125Z,14.70
2022-09-24T09:50:29.890Z,14.80
2022-09-24T09:52:59.829Z,14.90
2022-09-24T09:55:31.526Z,15.00
2022-09-24T09:58:22.686Z,15.00
2022-09-24T10:00:50.880Z,14.80
2022-09-24T10:03:27.983Z,14.80
2022-09-24T10:06:07.430Z,14.80
2022-09-24T10:08:35.524Z,15.00
2022-09-24T10:11:04.009Z,15.20
2022-09-24T10:13:34.709Z,15.40
2022-09-24T10:16:08.421Z,15.50
2022-09-24T10:18:42.409Z,15.70
2022-09-24T10:21:46.794Z,16.10
2022-09-24T10:24:22.232Z,16.50
2022-09-24T10:26:50.792Z,16.90
2022-09-24T10:29:43.138Z,17.10
2022-09-24T10:32:29.966Z,17.50
2022-09-24T10:34:57.308Z,18.40
2022-09-24T10:37:25.469Z,19.30
2022-09-24T10:40:12.027Z,20.40
2022-09-24T10:42:39.916Z,21.30
2022-09-24T10:45:14.613Z,22.30
2022-09-24T10:48:09.246Z,23.10
2022-09-24T10:50:54.856Z,23.00
2022-09-24T10:54:13.252Z,23.20
2022-09-24T10:56:46.934Z,24.00
2022-09-24T10:59:39.645Z,24.70
2022-09-24T11:02:26.466Z,24.50
2022-09-24T11:05:13.528Z,24.30
2022-09-24T11:07:48.030Z,24.60
2022-09-24T11:10:30.227Z,24.90
2022-09-24T11:12:57.480Z,24.50
2022-09-24T11:15:43.203Z,25.00
2022-09-24T11:18:38.082Z,25.80
2022-09-24T11:21:08.228Z,26.40
2022-09-24T11:24:23.653Z,27.30
2022-09-24T11:27:09.064Z,27.40
2022-09-24T11:29:45.565Z,27.50
2022-09-24T11:32:22.214Z,27.80
2022-09-24T11:35:03.719Z,27.50
2022-09-24T11:37:51.312Z,27.50
2022-09-24T11:40:56.239Z,27.10
2022-09-24T11:44:01.278Z,27.00
2022-09-24T11:46:59.580Z,26.70
2022-09-24T11:50:08.342Z,26.70
2022-09-24T11:52:39.904Z,26.80
2022-09-24T11:55:18.996Z,26.00
2022-09-24T11:57:58.070Z,25.20
2022-09-24T12:00:32.756Z,24.50
2022-09-24T12:03:08.051Z,23.70
2022-09-24T12:05:45.224Z,22.60
2022-09-24T12:08:28.154Z,21.50
2022-09-24T12:11:11.746Z,21.10
2022-09-24T12:13:43.311Z,20.90
2022-09-24T12:16:19.861Z,21.20
2022-09-24T12:18:56.163Z,21.80
2022-09-24T12:21:33.043Z,21.40
2022-09-24T12:24:05.424Z,21.00
2022-09-24T12:26:38.012Z,20.70
2022-09-24T12:29:26.759Z,20.20
2022-09-24T12:32:31.782Z,20.10
2022-09-24T12:35:31.663Z,20.00
2022-09-24T12:38:15.059Z,20.00
2022-09-24T12:40:57.752Z,20.20
2022-09-24T12:43:31.735Z,20.10
2022-09-24T12:46:05.682Z,19.90
2022-09-24T12:48:37.940Z,19.60
2022-09-24T12:51:10.862Z,19.40
2022-09-24T12:53:41.876Z,19.40
2022-09-24T12:56:11.102Z,19.50
2022-09-24T12:58:43.986Z,19.60
2022-09-24T13:01:24.647Z,19.70
2022-09-24T13:04:26.149Z,20.00
2022-09-24T13:06:54.662Z,20.70
2022-09-24T13:09:35.338Z,20.80
2022-09-24T13:12:32.550Z,20.90
2022-09-24T13:15:07.320Z,20.60
2022-09-24T13:17:38.954Z,20.50
2022-09-24T13:20:09.936Z,20.40
2022-09-24T13:22:38.145Z,20.50
2022-09-24T13:25:08.395Z,20.20
2022-09-24T13:27:47.746Z,19.90
2022-09-24T13:30:20.123Z,19.90
2022-09-24T13:33:02.674Z,19.80
2022-09-24T13:35:42.035Z,19.70
2022-09-24T13:38:30.206Z,19.80
2022-09-24T13:41:23.985Z,20.00
2022-09-24T13:44:01.826Z,20.20
2022-09-24T13:46:30.707Z,20.40
2022-09-24T13:49:06.499Z,20.60
2022-09-24T13:51:36.473Z,20.80
2022-09-24T13:54:09.652Z,20.90
2022-09-24T13:56:39.767Z,20.80
2022-09-24T13:59:13.352Z,20.60
2022-09-24T14:01:44.935Z,20.60
2022-09-24T14:04:18.487Z,20.70
2022-09-24T14:06:47.741Z,21.00
2022-09-24T14:09:28.186Z,21.30
2022-09-24T14:11:58.647Z,21.60
2022-09-24T14:14:28.501Z,21.20
2022-09-24T14:17:08.018Z,21.00
2022-09-24T14:19:37.549Z,20.70
2022-09-24T14:22:07.437Z,20.70
2022-09-24T14:24:44.444Z,20.80
2022-09-24T14:27:17.898Z,20.20
2022-09-24T14:30:20.248Z,19.80
2022-09-24T14:32:53.703Z,19.30
2022-09-24T14:35:33.427Z,19.10
2022-09-24T14:38:04.677Z,18.90
2022-09-24T14:40:45.031Z,18.90
2022-09-24T14:43:37.647Z,18.80
2022-09-24T14:46:22.708Z,18.90
2022-09-24T14:48:51.446Z,18.90
2022-09-24T14:51:36.835Z,18.70
2022-09-24T14:54:26.274Z,18.60
2022-09-24T14:56:53.769Z,18.60
2022-09-24T14:59:32.166Z,18.40
2022-09-24T15:02:23.006Z,18.50
2022-09-24T15:04:58.776Z,18.70
2022-09-24T15:07:31.946Z,18.70
2022-09-24T15:10:01.610Z,18.60
2022-09-24T15:12:37.564Z,18.50
2022-09-24T15:15:25.228Z,18.40
2022-09-24T15:17:52.921Z,18.30
2022-09-24T15:20:20.246Z,18.20
2022-09-24T15:22:48.903Z,18.00
2022-09-24T15:25:16.257Z,17.90
2022-09-24T15:27:45.280Z,17.80
2022-09-24T15:30:20.990Z,17.80
2022-09-24T15:32:50.440Z,17.70
2022-09-24T15:35:19.302Z,17.60
2022-09-24T15:37:47.073Z,17.60
2022-09-24T15:40:24.162Z,17.60
2022-09-24T15:42:52.522Z,17.60
2022-09-24T15:45:22.977Z,17.50
2022-09-24T15:47:54.125Z,17.50
2022-09-24T15:50:23.057Z,17.50
2022-09-24T15:52:59.091Z,17.40
2022-09-24T15:55:26.658Z,17.40
2022-09-24T15:57:54.313Z,17.30
2022-09-24T16:00:24.325Z,17.20
2022-09-24T16:02:55.246Z,17.10
2022-09-24T16:05:24.098Z,17.10
2022-09-24T16:07:51.697Z,17.00
2022-09-24T16:10:20.543Z,16.90
2022-09-24T16:12:47.924Z,16.80
2022-09-24T16:15:16.508Z,16.70
2022-09-24T16:17:44.185Z,16.60
2022-09-24T16:20:11.635Z,16.50
2022-09-24T16:22:39.193Z,16.40
2022-09-24T16:25:08.555Z,16.40
2022-09-24T16:27:36.735Z,16.30
2022-09-24T16:30:11.893Z,16.20
2022-09-24T16:32:39.238Z,16.10
2022-09-24T16:35:06.990Z,16.00
2022-09-24T16:37:34.662Z,15.90
2022-09-24T16:40:02.468Z,15.80
2022-09-24T16:42:29.897Z,15.70
2022-09-24T16:44:58.533Z,15.60
2022-09-24T16:47:26.150Z,15.50
2022-09-24T16:49:53.694Z,15.30
2022-09-24T16:52:21.056Z,15.20
2022-09-24T16:54:48.504Z,15.10
2022-09-24T16:57:16.060Z,15.00
2022-09-24T16:59:44.419Z,14.90
2022-09-24T17:02:13.443Z,14.80
2022-09-24T17:04:41.649Z,14.70
2022-09-24T17:07:10.622Z,14.60
2022-09-24T17:09:56.830Z,14.50
2022-09-24T17:12:24.564Z,14.40
2022-09-24T17:14:52.133Z,14.40
2022-09-24T17:17:19.836Z,14.30
2022-09-24T17:19:47.354Z,14.20
2022-09-24T17:22:14.683Z,14.10
2022-09-24T17:24:42.113Z,14.10
2022-09-24T17:27:09.488Z,14.00
2022-09-24T17:29:38.088Z,13.90
2022-09-24T17:32:05.576Z,13.90
2022-09-24T17:34:33.483Z,13.80
2022-09-24T17:37:01.073Z,13.60
2022-09-24T17:39:28.718Z,13.60
2022-09-24T17:41:56.195Z,13.50
2022-09-24T17:44:23.528Z,13.50
2022-09-24T17:46:51.076Z,13.40
2022-09-24T17:49:18.457Z,13.30
2022-09-24T17:51:47.467Z,13.20
2022-09-24T17:54:17.568Z,13.20
2022-09-24T17:56:45.447Z,13.10
2022-09-24T17:59:15.216Z,13.00
2022-09-24T18:01:43.788Z,12.90
2022-09-24T18:04:16.420Z,12.80
2022-09-24T18:06:45.821Z,12.80
2022-09-24T18:09:15.117Z,12.70
2022-09-24T18:11:48.475Z,12.70
2022-09-24T18:14:18.234Z,12.60
2022-09-24T18:16:46.608Z,12.60
2022-09-24T18:19:17.289Z,12.50
2022-09-24T18:21:46.021Z,12.50
2022-09-24T18:24:14.752Z,12.50
2022-09-24T18:26:42.035Z,12.40
2022-09-24T18:29:16.161Z,12.40
2022-09-24T18:31:44.260Z,12.30
2022-09-24T18:34:16.457Z,12.20
2022-09-24T18:36:45.520Z,12.20
2022-09-24T18:39:23.685Z,12.20
2022-09-24T18:41:52.697Z,12.10
2022-09-24T18:44:20.153Z,12.00
2022-09-24T18:46:47.658Z,12.00
2022-09-24T18:49:15.555Z,12.00
2022-09-24T18:51:43.012Z,11.90
2022-09-24T18:54:14.924Z,11.80
2022-09-24T18:56:43.927Z,11.80
2022-09-24T18:59:14.570Z,11.80
2022-09-24T19:01:43.642Z,11.70
2022-09-24T19:04:12.593Z,11.70
2022-09-24T19:06:43.543Z,11.70
2022-09-24T19:09:13.806Z,11.60
2022-09-24T19:11:42.201Z,11.60
2022-09-24T19:14:12.465Z,11.50
2022-09-24T19:16:40.467Z,11.40
2022-09-24T19:19:08.673Z,11.40
2022-09-24T19:21:36.207Z,11.40
2022-09-24T19:24:06.963Z,11.30
2022-09-24T19:26:36.576Z,11.30
2022-09-24T19:29:04.508Z,11.20
2022-09-24T19:31:37.017Z,11.20
2022-09-24T19:34:06.500Z,11.10
2022-09-24T19:36:44.124Z,11.00
2022-09-24T19:39:16.649Z,11.00
2022-09-24T19:41:45.061Z,10.90
2022-09-24T19:44:12.700Z,10.90
2022-09-24T19:46:41.300Z,10.70
2022-09-24T19:49:09.269Z,10.50
2022-09-24T19:51:37.083Z,10.40
2022-09-24T19:54:07.147Z,10.40
2022-09-24T19:56:35.649Z,10.30
2022-09-24T19:59:04.153Z,10.30
2022-09-24T20:01:33.593Z,10.30
2022-09-24T20:04:05.374Z,10.20
2022-09-24T20:06:34.483Z,10.20
2022-09-24T20:09:02.578Z,10.10
2022-09-24T20:11:32.991Z,10.10
2022-09-24T20:14:01.842Z,10.10
2022-09-24T20:16:33.571Z,10.00
2022-09-24T20:19:02.596Z,10.00
2022-09-24T20:21:35.159Z,10.00
2022-09-24T20:24:05.033Z,10.00
2022-09-24T20:26:51.750Z,10.00
2022-09-24T20:29:20.223Z,10.00
2022-09-24T20:31:52.361Z,9.90
2022-09-24T20:34:22.935Z,9.90
2022-09-24T20:36:53.774Z,9.90
2022-09-24T20:39:21.403Z,9.90
2022-09-24T20:41:49.792Z,9.90
2022-09-24T20:44:17.753Z,9.90
2022-09-24T20:46:45.374Z,9.80
2022-09-24T20:49:19.196Z,9.80
2022-09-24T20:51:46.701Z,9.80
2022-09-24T20:54:14.273Z,9.80
2022-09-24T20:56:42.603Z,9.70
2022-09-24T20:59:10.165Z,9.70
2022-09-24T21:01:38.172Z,9.70
2022-09-24T21:04:06.228Z,9.60
2022-09-24T21:06:33.737Z,9.60
2022-09-24T21:09:01.423Z,9.60
2022-09-24T21:11:28.747Z,9.60
2022-09-24T21:14:01.043Z,9.50
2022-09-24T21:16:31.441Z,9.40
2022-09-24T21:19:01.134Z,9.40
2022-09-24T21:21:31.298Z,9.30
2022-09-24T21:24:00.510Z,9.30
2022-09-24T21:26:30.053Z,9.30
2022-09-24T21:29:19.023Z,9.30
2022-09-24T21:31:47.402Z,9.20
2022-09-24T21:34:16.932Z,9.20
2022-09-24T21:36:48.063Z,9.10
2022-09-24T21:39:23.509Z,9.10
2022-09-24T21:41:53.294Z,9.00
2022-09-24T21:44:21.733Z,9.00
2022-09-24T21:46:52.787Z,9.00
2022-09-24T21:49:20.759Z,8.90
2022-09-24T21:51:48.388Z,8.90
2022-09-24T21:54:18.234Z,8.90
2022-09-24T21:56:46.753Z,8.90
2022-09-24T21:59:33.672Z,8.90
2022-09-24T22:02:04.460Z,8.80
2022-09-24T22:04:34.497Z,8.80
2022-09-24T22:07:02.106Z,8.80
2022-09-24T22:09:30.551Z,8.80
2022-09-24T22:12:01.119Z,8.80
2022-09-24T22:14:28.494Z,8.70
2022-09-24T22:16:56.983Z,8.70
2022-09-24T22:19:24.484Z,8.70
2022-09-24T22:21:52.609Z,8.60
2022-09-24T22:24:19.895Z,8.60
2022-09-24T22:26:47.443Z,8.60
2022-09-24T22:29:14.815Z,8.60
2022-09-24T22:31:42.043Z,8.50
2022-09-24T22:34:29.277Z,8.50
2022-09-24T22:36:56.826Z,8.50
2022-09-24T22:39:24.408Z,8.40
2022-09-24T22:41:52.870Z,8.40
2022-09-24T22:44:20.244Z,8.40
2022-09-24T22:46:48.026Z,8.40
2022-09-24T22:49:15.407Z,8.30
2022-09-24T22:51:42.720Z,8.30
2022-09-24T22:54:11.244Z,8.30
2022-09-24T22:56:38.882Z,8.30
2022-09-24T22:59:06.824Z,8.30
2022-09-24T23:01:40.050Z,8.20
2022-09-24T23:04:07.780Z,8.20
2022-09-24T23:06:35.433Z,8.20
2022-09-24T23:09:02.793Z,8.20
2022-09-24T23:11:32.440Z,8.20
2022-09-24T23:14:06.373Z,8.20
2022-09-24T23:16:36.391Z,8.10
2022-09-24T23:19:12.114Z,8.10
2022-09-24T23:21:39.926Z,8.10
2022-09-24T23:24:18.316Z,8.10
2022-09-24T23:26:46.974Z,8.00
2022-09-24T23:29:15.450Z,7.90
2022-09-24T23:31:42.916Z,7.90
2022-09-24T23:34:12.928Z,7.90
2022-09-24T23:36:40.256Z,7.90
2022-09-24T23:39:07.516Z,7.90
2022-09-24T23:41:35.087Z,7.80
2022-09-24T23:44:02.572Z,7.80
2022-09-24T23:46:30.435Z,7.80
2022-09-24T23:48:57.851Z,7.80
2022-09-24T23:51:25.369Z,7.80
2022-09-24T23:53:53.119Z,7.70
2022-09-24T23:56:20.568Z,7.70
2022-09-24T23:58:48.279Z,7.70
